createdAt,value
2022-12-25T00:01:39.068Z,8.70
2022-12-25T00:04:05.663Z,8.70
2022-12-25T00:06:32.138Z,8.68
2022-12-25T00:08:58.668Z,8.69
2022-12-25T00:11:25.032Z,8.71
2022-12-25T00:13:51.469Z,8.73
2022-12-25T00:16:24.199Z,8.74
2022-12-25T00:18:53.997Z,8.70
2022-12-25T00:21:21.891Z,8.68
2022-12-25T00:23:53.114Z,8.66
2022-12-25T00:26:19.593Z,8.65
2022-12-25T00:28:46.313Z,8.65
2022-12-25T00:31:15.728Z,8.66
2022-12-25T00:33:44.145Z,8.70
2022-12-25T00:36:12.127Z,8.71
2022-12-25T00:38:40.235Z,8.74
2022-12-25T00:41:18.328Z,8.76
2022-12-25T00:43:44.836Z,8.74
2022-12-25T00:46:13.102Z,8.75
2022-12-25T00:48:40.053Z,8.75
2022-12-25T00:51:10.420Z,8.75
2022-12-25T00:53:36.898Z,8.76
2022-12-25T00:56:05.972Z,8.77
2022-12-25T00:58:34.261Z,8.77
2022-12-25T01:01:01.247Z,8.80
2022-12-25T01:03:28.195Z,8.78
2022-12-25T01:05:57.438Z,8.81
2022-12-25T01:08:24.915Z,8.82
2022-12-25T01:10:58.776Z,8.82
2022-12-25T01:13:25.711Z,8.81
2022-12-25T01:15:52.669Z,8.82
2022-12-25T01:18:19.932Z,8.81
2022-12-25T01:20:46.939Z,8.83
2022-12-25T01:23:13.530Z,8.83
2022-12-25T01:25:40.025Z,8.81
2022-12-25T01:28:07.366Z,8.77
2022-12-25T01:30:33.903Z,8.78
2022-12-25T01:33:00.362Z,8.80
2022-12-25T01:35:26.762Z,8.79
2022-12-25T01:37:53.728Z,8.77
2022-12-25T01:40:20.214Z,8.78
2022-12-25T01:42:46.643Z,8.79
2022-12-25T01:45:54.893Z,8.78
2022-12-25T01:48:34.086Z,8.76
2022-12-25T01:51:20.301Z,8.77
2022-12-25T01:53:46.740Z,8.79
2022-12-25T01:56:13.185Z,8.77
2022-12-25T01:58:39.662Z,8.77
2022-12-25T02:01:06.199Z,8.75
2022-12-25T02:03:32.783Z,8.76
2022-12-25T02:06:01.148Z,8.77
2022-12-25T02:08:27.873Z,8.78
2022-12-25T02:10:54.301Z,8.79
2022-12-25T02:13:21.004Z,8.77
2022-12-25T02:16:13.295Z,8.73
2022-12-25T02:18:46.441Z,8.74
2022-12-25T02:21:35.545Z,8.72
2022-12-25T02:24:30.771Z,8.73
2022-12-25T02:27:36.698Z,8.75
2022-12-25T02:30:07.036Z,8.74
2022-12-25T02:33:18.309Z,8.72
2022-12-25T02:35:52.268Z,8.69
2022-12-25T02:38:31.361Z,8.66
2022-12-25T02:41:04.723Z,8.65
2022-12-25T02:43:55.002Z,8.65
2022-12-25T02:46:42.352Z,8.64
2022-12-25T02:49:34.191Z,8.62
2022-12-25T02:52:30.067Z,8.59
2022-12-25T02:55:21.539Z,8.60
2022-12-25T02:58:21.471Z,8.61
2022-12-25T03:01:11.508Z,8.62
2022-12-25T03:03:59.831Z,8.61
2022-12-25T03:06:43.714Z,8.61
2022-12-25T03:09:42.890Z,8.60
2022-12-25T03:12:42.968Z,8.56
2022-12-25T03:15:30.609Z,8.61
2022-12-25T03:18:00.307Z,8.64
2022-12-25T03:20:45.411Z,8.64
2022-12-25T03:23:33.766Z,8.66
2022-12-25T03:26:18.977Z,8.65
2022-12-25T03:28:45.409Z,8.68
2022-12-25T03:31:18.641Z,8.69
2022-12-25T03:34:30.206Z,8.72
2022-12-25T03:37:44.801Z,8.73
2022-12-25T03:40:55.956Z,8.73
2022-12-25T03:44:04.776Z,8.75
2022-12-25T03:46:53.754Z,8.76
2022-12-25T03:49:43.579Z,8.73
2022-12-25T03:52:32.832Z,8.72
2022-12-25T03:55:22.103Z,8.72
2022-12-25T03:58:07.521Z,8.75
2022-12-25T04:00:52.347Z,8.74
2022-12-25T04:03:37.606Z,8.75
2022-12-25T04:06:22.610Z,8.75
2022-12-25T04:09:07.358Z,8.77
2022-12-25T04:11:56.032Z,8.76
2022-12-25T04:14:45.523Z,8.75
2022-12-25T04:17:30.283Z,8.77
2022-12-25T04:20:15.141Z,8.75
2022-12-25T04:22:59.908Z,8.74
2022-12-25T04:25:44.825Z,8.74
2022-12-25T04:28:29.682Z,8.69
2022-12-25T04:31:19.331Z,8.70
2022-12-25T04:34:04.803Z,8.73
2022-12-25T04:36:31.248Z,8.74
2022-12-25T04:38:57.683Z,8.76
2022-12-25T04:41:24.114Z,8.72
2022-12-25T04:43:50.496Z,8.74
2022-12-25T04:46:16.950Z,8.75
2022-12-25T04:48:43.533Z,8.78
2022-12-25T04:51:15.162Z,8.82
2022-12-25T04:53:42.149Z,8.82
2022-12-25T04:56:08.617Z,8.83
2022-12-25T04:58:35.062Z,8.86
2022-12-25T05:01:02.699Z,8.85
2022-12-25T05:03:29.705Z,8.88
2022-12-25T05:05:56.342Z,8.90
2022-12-25T05:08:23.180Z,8.91
2022-12-25T05:10:50.043Z,8.91
2022-12-25T05:13:16.648Z,8.90
2022-12-25T05:15:43.815Z,8.91
2022-12-25T05:18:10.258Z,8.92
2022-12-25T05:20:40.210Z,8.96
2022-12-25T05:23:09.004Z,8.95
2022-12-25T05:25:39.693Z,8.91
2022-12-25T05:28:06.541Z,8.91
2022-12-25T05:30:34.178Z,8.93
2022-12-25T05:33:00.986Z,8.88
2022-12-25T05:35:27.419Z,8.89
2022-12-25T05:37:53.816Z,8.92
2022-12-25T05:40:20.255Z,8.94
2022-12-25T05:42:46.761Z,8.91
2022-12-25T05:45:13.130Z,8.88
2022-12-25T05:47:39.630Z,8.87
2022-12-25T05:50:06.642Z,8.83
2022-12-25T05:52:34.427Z,8.84
2022-12-25T05:55:01.209Z,8.85
2022-12-25T05:57:31.709Z,8.84
2022-12-25T05:59:58.082Z,8.78
2022-12-25T06:02:25.564Z,8.81
2022-12-25T06:04:52.208Z,8.80
2022-12-25T06:07:18.648Z,8.81
2022-12-25T06:09:45.144Z,8.75
2022-12-25T06:12:11.771Z,8.77
2022-12-25T06:14:38.377Z,8.77
2022-12-25T06:17:04.931Z,8.79
2022-12-25T06:19:31.462Z,8.73
2022-12-25T06:21:57.941Z,8.78
2022-12-25T06:24:24.628Z,8.81
2022-12-25T06:26:51.408Z,8.81
2022-12-25T06:29:17.809Z,8.82
2022-12-25T06:31:44.359Z,8.82
2022-12-25T06:34:10.845Z,8.84
2022-12-25T06:36:38.003Z,8.83
2022-12-25T06:39:04.536Z,8.83
2022-12-25T06:41:30.946Z,8.82
2022-12-25T06:43:59.269Z,8.81
2022-12-25T06:46:27.999Z,8.81
2022-12-25T06:48:54.668Z,8.77
2022-12-25T06:51:26.555Z,8.79
2022-12-25T06:53:54.492Z,8.81
2022-12-25T06:56:24.159Z,8.83
2022-12-25T06:58:53.943Z,8.86
2022-12-25T07:01:24.266Z,8.87
2022-12-25T07:03:56.110Z,8.89
2022-12-25T07:06:22.754Z,8.90
2022-12-25T07:08:49.235Z,8.89
2022-12-25T07:11:15.890Z,8.89
2022-12-25T07:13:42.376Z,8.89
2022-12-25T07:16:11.581Z,8.83
2022-12-25T07:18:38.223Z,8.86
2022-12-25T07:21:16.010Z,8.87
2022-12-25T07:23:46.107Z,8.89
2022-12-25T07:26:13.936Z,8.86
2022-12-25T07:28:40.979Z,8.89
2022-12-25T07:31:11.638Z,8.90
2022-12-25T07:33:38.319Z,8.93
2022-12-25T07:36:05.571Z,8.95
2022-12-25T07:38:32.240Z,8.94
2022-12-25T07:40:58.824Z,8.92
2022-12-25T07:43:25.366Z,8.95
2022-12-25T07:45:56.792Z,9.00
2022-12-25T07:48:23.280Z,8.99
2022-12-25T07:50:56.134Z,9.00
2022-12-25T07:53:22.523Z,9.00
2022-12-25T07:55:48.967Z,8.99
2022-12-25T07:58:19.944Z,8.99
2022-12-25T08:00:49.802Z,8.99
2022-12-25T08:03:16.869Z,8.97
2022-12-25T08:05:43.385Z,8.98
2022-12-25T08:08:09.791Z,8.98
2022-12-25T08:10:37.150Z,8.99
2022-12-25T08:13:06.490Z,9.01
2022-12-25T08:15:35.460Z,9.05
2022-12-25T08:18:01.830Z,9.09
2022-12-25T08:20:28.186Z,9.08
2022-12-25T08:22:54.544Z,9.10
2022-12-25T08:25:20.962Z,9.09
2022-12-25T08:27:47.340Z,9.08
2022-12-25T08:30:13.891Z,9.06
2022-12-25T08:32:40.367Z,9.08
2022-12-25T08:35:07.355Z,9.08
2022-12-25T08:37:33.744Z,9.06
2022-12-25T08:40:00.253Z,9.07
2022-12-25T08:42:26.659Z,9.06
2022-12-25T08:44:53.181Z,9.05
2022-12-25T08:47:19.633Z,9.04
2022-12-25T08:49:46.085Z,9.04
2022-12-25T08:52:12.649Z,9.04
2022-12-25T08:54:39.080Z,9.07
2022-12-25T08:57:05.582Z,9.09
2022-12-25T08:59:32.023Z,9.06
2022-12-25T09:01:58.591Z,9.09
2022-12-25T09:04:25.145Z,9.10
2022-12-25T09:06:51.625Z,9.11
2022-12-25T09:09:17.992Z,9.11
2022-12-25T09:11:44.571Z,9.15
2022-12-25T09:14:13.510Z,9.16
2022-12-25T09:16:39.991Z,9.18
2022-12-25T09:19:06.378Z,9.21
2022-12-25T09:21:32.854Z,9.21
2022-12-25T09:23:59.207Z,9.23
2022-12-25T09:26:27.168Z,9.21
2022-12-25T09:28:53.559Z,9.22
2022-12-25T09:31:21.615Z,9.22
2022-12-25T09:33:48.931Z,9.23
2022-12-25T09:36:15.441Z,9.23
2022-12-25T09:38:41.917Z,9.26
2022-12-25T09:41:17.245Z,9.29
2022-12-25T09:43:50.401Z,9.29
2022-12-25T09:46:21.738Z,9.23
2022-12-25T09:49:02.858Z,9.22
2022-12-25T09:51:33.053Z,9.26
2022-12-25T09:54:11.643Z,9.26
2022-12-25T09:56:38.356Z,9.27
2022-12-25T09:59:18.839Z,9.37
2022-12-25T10:02:00.938Z,9.36
2022-12-25T10:05:11.938Z,9.39
2022-12-25T10:08:21.439Z,9.40
2022-12-25T10:10:51.911Z,9.38
2022-12-25T10:13:50.360Z,9.38
2022-12-25T10:16:46.445Z,9.37
2022-12-25T10:19:38.618Z,9.33
2022-12-25T10:22:14.321Z,9.30
2022-12-25T10:24:47.769Z,9.33
2022-12-25T10:27:28.699Z,9.33
2022-12-25T10:29:55.204Z,9.34
2022-12-25T10:32:22.022Z,9.33
2022-12-25T10:34:49.661Z,9.32
2022-12-25T10:37:16.948Z,9.31
2022-12-25T10:39:46.879Z,9.34
2022-12-25T10:42:29.068Z,9.34
2022-12-25T10:45:01.102Z,9.35
2022-12-25T10:47:41.989Z,9.37
2022-12-25T10:50:13.057Z,9.35
2022-12-25T10:52:54.978Z,9.35
2022-12-25T10:55:28.165Z,9.36
2022-12-25T10:57:55.496Z,9.38
2022-12-25T11:00:27.473Z,9.40
2022-12-25T11:02:54.708Z,9.40
2022-12-25T11:05:26.503Z,9.40
2022-12-25T11:07:56.086Z,9.42
2022-12-25T11:10:25.650Z,9.44
2022-12-25T11:12:53.321Z,9.46
2022-12-25T11:15:39.526Z,9.50
2022-12-25T11:18:22.219Z,9.53
2022-12-25T11:20:50.644Z,9.55
2022-12-25T11:23:20.210Z,9.55
2022-12-25T11:25:56.254Z,9.58
2022-12-25T11:28:24.093Z,9.57
2022-12-25T11:30:55.205Z,9.57
2022-12-25T11:33:27.709Z,9.59
2022-12-25T11:35:57.981Z,9.62
2022-12-25T11:38:24.742Z,9.64
2022-12-25T11:40:54.687Z,9.65
2022-12-25T11:43:27.747Z,9.68
2022-12-25T11:46:01.245Z,9.69
2022-12-25T11:48:41.147Z,9.68
2022-12-25T11:51:09.846Z,9.68
2022-12-25T11:53:51.789Z,9.67
2022-12-25T11:56:23.070Z,9.66
2022-12-25T11:58:56.927Z,9.64
2022-12-25T12:01:37.306Z,9.64
2022-12-25T12:04:27.461Z,9.59
2022-12-25T12:07:27.659Z,9.59
2022-12-25T12:10:15.189Z,9.60
2022-12-25T12:13:05.909Z,9.61
2022-12-25T12:15:43.428Z,9.62
2022-12-25T12:18:21.868Z,9.63
2022-12-25T12:21:05.529Z,9.57
2022-12-25T12:23:36.857Z,9.59
2022-12-25T12:26:04.573Z,9.60
2022-12-25T12:28:45.140Z,9.62
2022-12-25T12:31:12.160Z,9.51
2022-12-25T12:33:44.038Z,9.55
2022-12-25T12:36:14.942Z,9.54
2022-12-25T12:38:43.574Z,9.57
2022-12-25T12:41:13.850Z,9.62
2022-12-25T12:44:03.169Z,9.60
2022-12-25T12:46:33.882Z,9.55
2022-12-25T12:49:32.699Z,9.53
2022-12-25T12:52:19.108Z,9.52
2022-12-25T12:55:08.297Z,9.51
2022-12-25T12:57:39.595Z,9.52
2022-12-25T13:00:10.435Z,9.65
2022-12-25T13:02:43.460Z,9.69
2022-12-25T13:05:41.971Z,9.68
2022-12-25T13:08:29.504Z,9.64
2022-12-25T13:11:05.233Z,9.64
2022-12-25T13:13:39.868Z,9.61
2022-12-25T13:16:13.352Z,9.57
2022-12-25T13:18:40.121Z,9.58
2022-12-25T13:21:07.323Z,9.58
2022-12-25T13:23:36.814Z,9.57
2022-12-25T13:26:16.826Z,9.52
2022-12-25T13:28:46.219Z,9.51
2022-12-25T13:31:12.823Z,9.48
2022-12-25T13:33:58.175Z,9.51
2022-12-25T13:36:26.822Z,9.50
2022-12-25T13:38:56.540Z,9.53
2022-12-25T13:41:45.316Z,9.52
2022-12-25T13:44:24.727Z,9.53
2022-12-25T13:46:51.570Z,9.54
2022-12-25T13:49:21.458Z,9.52
2022-12-25T13:51:48.510Z,9.52
2022-12-25T13:54:17.188Z,9.52
2022-12-25T13:56:48.300Z,9.53
2022-12-25T13:59:21.414Z,9.53
2022-12-25T14:01:49.483Z,9.52
2022-12-25T14:04:22.233Z,9.51
2022-12-25T14:06:49.525Z,9.51
2022-12-25T14:09:16.848Z,9.52
2022-12-25T14:11:48.632Z,9.53
2022-12-25T14:14:23.944Z,9.55
2022-12-25T14:16:54.612Z,9.55
2022-12-25T14:19:27.286Z,9.55
2022-12-25T14:22:10.711Z,9.56
2022-12-25T14:24:39.447Z,9.56
2022-12-25T14:27:16.285Z,9.54
2022-12-25T14:29:45.461Z,9.53
2022-12-25T14:32:18.061Z,9.60
2022-12-25T14:34:47.433Z,9.66
2022-12-25T14:37:21.735Z,9.64
2022-12-25T14:40:00.143Z,9.61
2022-12-25T14:42:31.834Z,9.63
2022-12-25T14:45:03.380Z,9.63
2022-12-25T14:47:31.959Z,9.64
2022-12-25T14:49:58.618Z,9.66
2022-12-25T14:52:42.000Z,9.65
2022-12-25T14:55:20.141Z,9.66
2022-12-25T14:57:58.642Z,9.68
2022-12-25T15:00:38.135Z,9.65
2022-12-25T15:03:08.053Z,9.67
2022-12-25T15:05:37.632Z,9.68
2022-12-25T15:08:04.010Z,9.69
2022-12-25T15:13:20.671Z,9.69
2022-12-25T15:16:15.799Z,9.78
2022-12-25T15:18:44.981Z,9.75
2022-12-25T15:21:24.775Z,9.73
2022-12-25T15:23:53.305Z,9.71
2022-12-25T15:26:19.826Z,9.70
2022-12-25T15:28:46.179Z,9.71
2022-12-25T15:31:27.854Z,9.71
2022-12-25T15:33:56.349Z,9.71
2022-12-25T15:36:24.446Z,9.71
2022-12-25T15:38:51.567Z,9.67
2022-12-25T15:41:40.805Z,9.66
2022-12-25T15:44:07.404Z,9.68
2022-12-25T15:46:34.420Z,9.70
2022-12-25T15:49:01.094Z,9.71
2022-12-25T15:51:27.845Z,9.72
2022-12-25T15:53:54.256Z,9.73
2022-12-25T15:56:22.017Z,9.74
2022-12-25T15:58:48.512Z,9.73
2022-12-25T16:01:16.272Z,9.72
2022-12-25T16:03:44.183Z,9.72
2022-12-25T16:06:16.338Z,9.73
2022-12-25T16:08:43.490Z,9.72
2022-12-25T16:11:10.263Z,9.71
2022-12-25T16:13:37.080Z,9.73
2022-12-25T16:16:04.957Z,9.72
2022-12-25T16:18:31.498Z,9.70
2022-12-25T16:20:59.423Z,9.68
2022-12-25T16:23:25.968Z,9.68
2022-12-25T16:25:52.437Z,9.66
2022-12-25T16:28:18.861Z,9.67
2022-12-25T16:30:45.427Z,9.65
2022-12-25T16:33:12.124Z,9.65
2022-12-25T16:35:38.749Z,9.64
2022-12-25T16:38:05.338Z,9.62
2022-12-25T16:40:32.058Z,9.61
2022-12-25T16:42:58.579Z,9.59
2022-12-25T16:45:25.071Z,9.54
2022-12-25T16:47:51.528Z,9.54
2022-12-25T16:50:17.957Z,9.50
2022-12-25T16:52:44.329Z,9.51
2022-12-25T16:55:10.874Z,9.52
2022-12-25T16:57:37.382Z,9.54
2022-12-25T17:00:04.386Z,9.53
2022-12-25T17:02:31.053Z,9.54
2022-12-25T17:04:57.587Z,9.52
2022-12-25T17:07:23.983Z,9.52
2022-12-25T17:09:50.418Z,9.54
2022-12-25T17:12:17.359Z,9.54
2022-12-25T17:14:43.844Z,9.54
2022-12-25T17:17:10.240Z,9.55
2022-12-25T17:19:36.828Z,9.53
2022-12-25T17:22:03.361Z,9.52
2022-12-25T17:24:29.942Z,9.53
2022-12-25T17:26:56.492Z,9.54
2022-12-25T17:29:23.189Z,9.55
2022-12-25T17:31:50.161Z,9.51
2022-12-25T17:34:16.875Z,9.48
2022-12-25T17:36:43.329Z,9.46
2022-12-25T17:39:10.830Z,9.45
2022-12-25T17:41:37.321Z,9.47
2022-12-25T17:44:03.843Z,9.48
2022-12-25T17:46:31.160Z,9.48
2022-12-25T17:48:59.319Z,9.49
2022-12-25T17:51:27.409Z,9.50
2022-12-25T17:53:56.902Z,9.50
2022-12-25T17:56:24.753Z,9.52
2022-12-25T17:58:53.712Z,9.51
2022-12-25T18:01:21.270Z,9.50
2022-12-25T18:03:48.133Z,9.50
2022-12-25T18:06:17.758Z,9.50
2022-12-25T18:08:45.663Z,9.51
2022-12-25T18:11:15.245Z,9.53
2022-12-25T18:13:44.966Z,9.52
2022-12-25T18:16:13.130Z,9.52
2022-12-25T18:18:40.419Z,9.51
2022-12-25T18:21:07.785Z,9.52
2022-12-25T18:23:35.443Z,9.54
2022-12-25T18:26:03.547Z,9.54
2022-12-25T18:28:30.190Z,9.52
2022-12-25T18:30:56.651Z,9.52
2022-12-25T18:33:23.201Z,9.54
2022-12-25T18:35:50.662Z,9.56
2022-12-25T18:38:17.134Z,9.57
2022-12-25T18:40:46.572Z,9.59
2022-12-25T18:43:13.809Z,9.60
2022-12-25T18:45:41.184Z,9.60
2022-12-25T18:48:10.487Z,9.59
2022-12-25T18:50:39.273Z,9.56
2022-12-25T18:53:06.714Z,9.57
2022-12-25T18:55:33.178Z,9.55
2022-12-25T18:57:59.624Z,9.54
2022-12-25T19:00:26.050Z,9.53
2022-12-25T19:02:57.202Z,9.51
2022-12-25T19:05:23.811Z,9.52
2022-12-25T19:07:50.280Z,9.53
2022-12-25T19:10:16.785Z,9.53
2022-12-25T19:12:43.244Z,9.52
2022-12-25T19:15:10.484Z,9.52
2022-12-25T19:17:36.961Z,9.53
2022-12-25T19:20:05.945Z,9.52
2022-12-25T19:22:32.384Z,9.49
2022-12-25T19:24:59.172Z,9.46
2022-12-25T19:27:25.651Z,9.44
2022-12-25T19:29:52.078Z,9.43
2022-12-25T19:32:18.511Z,9.42
2022-12-25T19:34:44.919Z,9.43
2022-12-25T19:37:11.476Z,9.45
2022-12-25T19:39:37.984Z,9.45
2022-12-25T19:42:04.436Z,9.45
2022-12-25T19:44:30.833Z,9.46
2022-12-25T19:46:57.266Z,9.44
2022-12-25T19:49:25.480Z,9.47
2022-12-25T19:51:51.946Z,9.45
2022-12-25T19:54:20.429Z,9.45
2022-12-25T19:56:48.519Z,9.47
2022-12-25T19:59:15.709Z,9.47
2022-12-25T20:01:42.670Z,9.46
2022-12-25T20:04:10.347Z,9.45
2022-12-25T20:06:42.390Z,9.44
2022-12-25T20:09:12.119Z,9.46
2022-12-25T20:11:39.597Z,9.46
2022-12-25T20:14:07.802Z,9.49
2022-12-25T20:16:38.162Z,9.49
2022-12-25T20:19:04.696Z,9.50
2022-12-25T20:21:31.281Z,9.50
2022-12-25T20:23:57.789Z,9.50
2022-12-25T20:26:29.677Z,9.50
2022-12-25T20:28:57.175Z,9.50
2022-12-25T20:31:27.184Z,9.50
2022-12-25T20:33:55.197Z,9.50
2022-12-25T20:36:21.766Z,9.50
2022-12-25T20:38:48.867Z,9.51
2022-12-25T20:41:27.206Z,9.52
2022-12-25T20:43:54.753Z,9.52
2022-12-25T20:46:22.393Z,9.51
2022-12-25T20:48:48.989Z,9.52
2022-12-25T20:51:18.708Z,9.50
2022-12-25T20:53:46.220Z,9.50
2022-12-25T20:56:14.709Z,9.52
2022-12-25T20:58:42.860Z,9.51
2022-12-25T21:01:13.122Z,9.54
2022-12-25T21:03:40.509Z,9.53
2022-12-25T21:06:07.956Z,9.53
2022-12-25T21:08:35.385Z,9.54
2022-12-25T21:11:02.510Z,9.51
2022-12-25T21:13:37.827Z,9.52
2022-12-25T21:16:06.378Z,9.53
2022-12-25T21:18:33.063Z,9.52
2022-12-25T21:21:00.889Z,9.53
2022-12-25T21:23:28.676Z,9.54
2022-12-25T21:25:55.055Z,9.56
2022-12-25T21:28:23.051Z,9.57
2022-12-25T21:30:49.717Z,9.56
2022-12-25T21:33:34.931Z,9.59
2022-12-25T21:36:09.345Z,9.59
2022-12-25T21:38:36.878Z,9.61
2022-12-25T21:41:08.768Z,9.60
2022-12-25T21:43:36.368Z,9.61
2022-12-25T21:46:11.820Z,9.61
2022-12-25T21:48:39.520Z,9.60
2022-12-25T21:51:29.779Z,9.59
2022-12-25T21:53:56.401Z,9.56
2022-12-25T21:56:22.979Z,9.54
2022-12-25T21:58:49.475Z,9.54
2022-12-25T22:01:16.797Z,9.56
2022-12-25T22:03:44.048Z,9.57
2022-12-25T22:06:30.049Z,9.56
2022-12-25T22:08:57.127Z,9.56
2022-12-25T22:11:45.062Z,9.54
2022-12-25T22:14:51.297Z,9.55
2022-12-25T22:17:43.347Z,9.56
2022-12-25T22:20:13.712Z,9.55
2022-12-25T22:22:40.090Z,9.55
2022-12-25T22:25:07.030Z,9.57
2022-12-25T22:27:35.766Z,9.55
2022-12-25T22:30:02.787Z,9.56
2022-12-25T22:32:29.325Z,9.56
2022-12-25T22:34:55.759Z,9.60
2022-12-25T22:37:22.382Z,9.60
2022-12-25T22:39:48.793Z,9.60
2022-12-25T22:42:15.711Z,9.56
2022-12-25T22:44:42.352Z,9.58
2022-12-25T22:47:08.982Z,9.56
2022-12-25T22:49:35.452Z,9.59
2022-12-25T22:52:02.214Z,9.57
2022-12-25T22:54:31.214Z,9.56
2022-12-25T22:56:58.159Z,9.53
2022-12-25T22:59:25.017Z,9.52
2022-12-25T23:01:51.620Z,9.50
2022-12-25T23:04:18.223Z,9.53
2022-12-25T23:06:44.971Z,9.55
2022-12-25T23:09:20.470Z,9.54
2022-12-25T23:11:50.610Z,9.50
2022-12-25T23:14:35.471Z,9.47
2022-12-25T23:17:01.900Z,9.46
2022-12-25T23:19:46.691Z,9.45
2022-12-25T23:22:31.990Z,9.45
2022-12-25T23:25:17.258Z,9.43
2022-12-25T23:27:44.857Z,9.44
2022-12-25T23:30:14.404Z,9.44
2022-12-25T23:32:41.719Z,9.44
2022-12-25T23:35:08.825Z,9.45
2022-12-25T23:37:35.208Z,9.43
2022-12-25T23:40:01.764Z,9.44
2022-12-25T23:42:28.354Z,9.44
2022-12-25T23:44:54.750Z,9.43
2022-12-25T23:47:21.188Z,9.40
2022-12-25T23:49:47.547Z,9.34
2022-12-25T23:52:14.041Z,9.33
2022-12-25T23:54:40.486Z,9.36
2022-12-25T23:57:06.927Z,9.39
2022-12-25T23:59:33.414Z,9.42
